createdAt,value
2023-05-05T00:02:17.831Z,74.88
2023-05-05T00:04:46.036Z,74.38
2023-05-05T00:07:15.275Z,74.50
2023-05-05T00:09:46.234Z,74.76
2023-05-05T00:12:14.064Z,74.25
2023-05-05T00:14:42.726Z,74.35
2023-05-05T00:17:10.925Z,74.91
2023-05-05T00:19:38.904Z,75.07
2023-05-05T00:22:07.047Z,75.53
2023-05-05T00:24:36.347Z,75.23
2023-05-05T00:27:04.688Z,74.41
2023-05-05T00:29:34.475Z,74.37
2023-05-05T00:32:02.437Z,75.08
2023-05-05T00:34:30.592Z,75.50
2023-05-05T00:36:58.489Z,74.57
2023-05-05T00:39:26.413Z,74.77
2023-05-05T00:41:55.678Z,74.91
2023-05-05T00:44:38.010Z,75.15
2023-05-05T00:47:07.294Z,75.97
2023-05-05T00:49:36.814Z,75.82
2023-05-05T00:52:06.697Z,76.09
2023-05-05T00:54:35.347Z,76.13
2023-05-05T00:57:05.049Z,76.42
2023-05-05T00:59:34.705Z,76.25
2023-05-05T01:02:02.920Z,77.03
2023-05-05T01:04:31.111Z,77.33
2023-05-05T01:07:08.876Z,77.03
2023-05-05T01:09:43.098Z,77.49
2023-05-05T01:12:25.094Z,77.41
2023-05-05T01:15:02.375Z,77.28
2023-05-05T01:17:38.290Z,77.87
2023-05-05T01:20:18.032Z,77.94
2023-05-05T01:22:52.578Z,77.67
2023-05-05T01:25:57.149Z,77.55
2023-05-05T01:28:39.270Z,77.99
2023-05-05T01:31:22.713Z,77.64
2023-05-05T01:33:59.256Z,77.66
2023-05-05T01:36:32.596Z,78.01
2023-05-05T01:39:03.221Z,78.40
2023-05-05T01:41:34.641Z,78.66
2023-05-05T01:44:07.303Z,78.49
2023-05-05T01:46:36.760Z,78.72
2023-05-05T01:49:06.842Z,78.69
2023-05-05T01:51:35.933Z,78.94
2023-05-05T01:54:07.770Z,78.98
2023-05-05T01:56:38.654Z,79.40
2023-05-05T01:59:07.797Z,79.56
2023-05-05T02:01:40.949Z,79.28
2023-05-05T02:04:11.935Z,79.39
2023-05-05T02:06:42.126Z,79.38
2023-05-05T02:09:12.889Z,80.22
2023-05-05T02:11:41.762Z,80.51
2023-05-05T02:14:11.804Z,80.73
2023-05-05T02:16:41.333Z,80.32
2023-05-05T02:19:12.310Z,80.13
2023-05-05T02:21:40.288Z,80.45
2023-05-05T02:24:08.723Z,80.30
2023-05-05T02:26:40.693Z,80.02
2023-05-05T02:29:16.202Z,79.95
2023-05-05T02:31:47.629Z,80.50
2023-05-05T02:34:26.560Z,81.05
2023-05-05T02:36:59.376Z,81.00
2023-05-05T02:39:33.197Z,81.14
2023-05-05T02:42:05.601Z,81.79
2023-05-05T02:44:35.627Z,81.41
2023-05-05T02:47:05.060Z,81.45
2023-05-05T02:49:35.037Z,81.80
2023-05-05T02:52:03.461Z,81.85
2023-05-05T02:54:35.359Z,81.04
2023-05-05T02:57:12.544Z,81.73
2023-05-05T02:59:50.216Z,81.65
2023-05-05T03:02:28.354Z,81.32
2023-05-05T03:05:05.386Z,81.95
2023-05-05T03:07:42.075Z,82.13
2023-05-05T03:10:13.291Z,82.20
2023-05-05T03:12:49.481Z,82.20
2023-05-05T03:15:27.356Z,82.69
2023-05-05T03:17:56.970Z,82.50
2023-05-05T03:20:27.228Z,81.99
2023-05-05T03:22:57.298Z,82.29
2023-05-05T03:25:42.810Z,81.98
2023-05-05T03:28:12.412Z,82.49
2023-05-05T03:30:41.131Z,82.60
2023-05-05T03:33:09.491Z,82.32
2023-05-05T03:35:39.232Z,82.29
2023-05-05T03:38:09.908Z,82.34
2023-05-05T03:40:44.210Z,82.73
2023-05-05T03:43:15.129Z,83.26
2023-05-05T03:45:43.078Z,83.46
2023-05-05T03:48:11.760Z,83.52
2023-05-05T03:50:42.519Z,83.11
2023-05-05T03:53:10.418Z,82.54
2023-05-05T03:55:39.339Z,83.06
2023-05-05T03:58:07.251Z,82.90
2023-05-05T04:00:35.201Z,82.92
2023-05-05T04:03:03.226Z,83.06
2023-05-05T04:05:31.439Z,82.56
2023-05-05T04:08:01.346Z,82.16
2023-05-05T04:10:29.259Z,82.14
2023-05-05T04:12:57.379Z,82.62
2023-05-05T04:15:25.253Z,82.73
2023-05-05T04:17:53.239Z,82.60
2023-05-05T04:20:21.881Z,82.73
2023-05-05T04:22:52.496Z,83.10
2023-05-05T04:25:22.202Z,83.05
2023-05-05T04:27:51.803Z,82.94
2023-05-05T04:30:20.219Z,83.07
2023-05-05T04:32:48.194Z,83.43
2023-05-05T04:35:16.609Z,83.23
2023-05-05T04:37:45.292Z,82.84
2023-05-05T04:40:13.739Z,83.31
2023-05-05T04:42:43.563Z,83.83
2023-05-05T04:45:13.150Z,83.39
2023-05-05T04:47:41.933Z,84.35
2023-05-05T04:50:13.831Z,84.11
2023-05-05T04:52:42.119Z,83.68
2023-05-05T04:55:11.438Z,84.00
2023-05-05T04:57:39.414Z,84.14
2023-05-05T05:00:10.478Z,84.65
2023-05-05T05:02:38.974Z,84.80
2023-05-05T05:05:07.867Z,84.92
2023-05-05T05:07:35.734Z,85.79
2023-05-05T05:10:04.639Z,84.66
2023-05-05T05:12:33.022Z,84.94
2023-05-05T05:15:00.888Z,84.68
2023-05-05T05:17:30.997Z,84.84
2023-05-05T05:20:04.627Z,84.76
2023-05-05T05:22:34.894Z,85.20
2023-05-05T05:25:03.620Z,84.34
2023-05-05T05:27:31.782Z,84.32
2023-05-05T05:29:59.737Z,84.66
2023-05-05T05:32:28.317Z,84.11
2023-05-05T05:34:57.944Z,84.06
2023-05-05T05:37:29.267Z,83.61
2023-05-05T05:39:57.191Z,83.34
2023-05-05T05:42:27.302Z,83.33
2023-05-05T05:44:55.372Z,82.87
2023-05-05T05:47:23.822Z,82.40
2023-05-05T05:49:52.452Z,82.05
2023-05-05T05:52:23.026Z,82.17
2023-05-05T05:54:51.793Z,82.04
2023-05-05T05:57:22.151Z,81.10
2023-05-05T05:59:50.162Z,81.20
2023-05-05T06:02:19.122Z,80.89
2023-05-05T06:04:47.994Z,80.85
2023-05-05T06:07:16.564Z,80.77
2023-05-05T06:09:46.352Z,80.28
2023-05-05T06:12:14.132Z,80.50
2023-05-05T06:14:42.246Z,80.23
2023-05-05T06:17:10.088Z,80.03
2023-05-05T06:19:39.741Z,80.17
2023-05-05T06:22:08.209Z,79.88
2023-05-05T06:24:36.803Z,79.40
2023-05-05T06:27:06.677Z,78.48
2023-05-05T06:29:34.569Z,78.20
2023-05-05T06:32:02.467Z,77.98
2023-05-05T06:34:30.394Z,77.62
2023-05-05T06:36:58.186Z,77.61
2023-05-05T06:39:26.131Z,77.83
2023-05-05T06:41:54.016Z,77.69
2023-05-05T06:44:23.213Z,78.12
2023-05-05T06:46:51.372Z,77.59
2023-05-05T06:49:19.444Z,77.83
2023-05-05T06:51:47.425Z,77.63
2023-05-05T06:54:15.290Z,77.37
2023-05-05T06:56:43.108Z,78.05
2023-05-05T06:59:11.766Z,77.20
2023-05-05T07:01:41.049Z,77.73
2023-05-05T07:04:08.983Z,76.98
2023-05-05T07:06:36.908Z,77.00
2023-05-05T07:09:05.373Z,77.38
2023-05-05T07:11:33.286Z,77.41
2023-05-05T07:14:01.137Z,77.76
2023-05-05T07:16:29.232Z,77.87
2023-05-05T07:19:00.801Z,78.08
2023-05-05T07:21:28.783Z,78.22
2023-05-05T07:23:56.798Z,79.04
2023-05-05T07:26:24.716Z,79.81
2023-05-05T07:28:53.050Z,80.07
2023-05-05T07:31:22.082Z,80.76
2023-05-05T07:33:50.643Z,80.04
2023-05-05T07:36:19.917Z,80.69
2023-05-05T07:38:48.060Z,81.13
2023-05-05T07:41:15.934Z,82.01
2023-05-05T07:43:44.675Z,81.34
2023-05-05T07:46:14.129Z,81.52
2023-05-05T07:48:42.181Z,83.27
2023-05-05T07:51:10.879Z,82.11
2023-05-05T07:53:40.190Z,84.16
2023-05-05T07:56:08.857Z,84.07
2023-05-05T07:58:36.977Z,86.12
2023-05-05T08:01:06.543Z,84.79
2023-05-05T08:03:34.561Z,86.59
2023-05-05T08:06:09.432Z,84.74
2023-05-05T08:08:37.834Z,86.18
2023-05-05T08:11:07.923Z,84.22
2023-05-05T08:13:36.014Z,84.34
2023-05-05T08:16:04.124Z,85.06
2023-05-05T08:18:31.979Z,85.54
2023-05-05T08:20:59.931Z,84.87
2023-05-05T08:23:27.860Z,84.45
2023-05-05T08:25:55.888Z,83.39
2023-05-05T08:28:25.140Z,82.84
2023-05-05T08:30:53.087Z,82.36
2023-05-05T08:33:21.089Z,81.46
2023-05-05T08:35:50.285Z,81.23
2023-05-05T08:38:19.134Z,81.51
2023-05-05T08:40:47.560Z,81.77
2023-05-05T08:43:15.891Z,79.30
2023-05-05T08:45:46.249Z,78.78
2023-05-05T08:48:14.323Z,78.78
2023-05-05T08:50:48.379Z,79.80
2023-05-05T08:53:18.612Z,78.35
2023-05-05T08:55:51.426Z,80.71
2023-05-05T08:58:19.871Z,79.64
2023-05-05T09:00:49.443Z,79.98
2023-05-05T09:03:18.327Z,79.02
2023-05-05T09:05:46.296Z,78.63
2023-05-05T09:08:14.502Z,78.14
2023-05-05T09:10:42.785Z,79.48
2023-05-05T09:13:10.900Z,80.02
2023-05-05T09:15:41.428Z,79.67
2023-05-05T09:18:12.225Z,80.22
2023-05-05T09:20:41.550Z,79.81
2023-05-05T09:23:10.420Z,78.20
2023-05-05T09:25:38.460Z,78.89
2023-05-05T09:28:11.408Z,77.88
2023-05-05T09:30:40.157Z,77.71
2023-05-05T09:33:08.275Z,77.43
2023-05-05T09:35:54.685Z,76.08
2023-05-05T09:38:23.567Z,76.87
2023-05-05T09:40:52.716Z,75.76
2023-05-05T09:43:21.959Z,75.08
2023-05-05T09:45:50.436Z,75.90
2023-05-05T09:48:25.729Z,76.61
2023-05-05T09:50:55.655Z,75.54
2023-05-05T09:53:24.587Z,75.03
2023-05-05T09:55:56.280Z,74.72
2023-05-05T09:58:25.816Z,75.19
2023-05-05T10:00:54.509Z,75.18
2023-05-05T10:03:22.883Z,74.97
2023-05-05T10:05:52.673Z,75.16
2023-05-05T10:08:23.295Z,73.44
2023-05-05T10:10:53.550Z,74.07
2023-05-05T10:13:22.645Z,73.78
2023-05-05T10:15:52.066Z,73.78
2023-05-05T10:18:24.384Z,74.26
2023-05-05T10:20:59.155Z,73.01
2023-05-05T10:23:36.053Z,72.71
2023-05-05T10:26:06.987Z,73.56
2023-05-05T10:28:35.940Z,74.13
2023-05-05T10:31:20.072Z,74.05
2023-05-05T10:33:55.555Z,74.00
2023-05-05T10:36:24.147Z,74.10
2023-05-05T10:38:56.833Z,73.72
2023-05-05T10:41:25.824Z,73.33
2023-05-05T10:43:56.508Z,72.71
2023-05-05T10:46:25.249Z,73.33
2023-05-05T10:49:00.811Z,73.12
2023-05-05T10:51:40.476Z,72.99
2023-05-05T10:54:21.489Z,73.09
2023-05-05T10:56:51.159Z,72.95
2023-05-05T10:59:42.242Z,72.74
2023-05-05T11:02:20.668Z,72.99
2023-05-05T11:05:12.201Z,73.44
2023-05-05T11:07:40.382Z,72.75
2023-05-05T11:10:11.253Z,72.28
2023-05-05T11:13:16.923Z,72.43
2023-05-05T11:15:44.835Z,70.77
2023-05-05T11:18:35.836Z,71.13
2023-05-05T11:21:17.863Z,69.95
2023-05-05T11:23:56.731Z,70.18
2023-05-05T11:26:51.540Z,69.66
2023-05-05T11:29:19.401Z,69.54
2023-05-05T11:31:48.740Z,68.90
2023-05-05T11:34:29.450Z,69.06
2023-05-05T11:37:04.150Z,68.58
2023-05-05T11:39:49.588Z,68.50
2023-05-05T11:42:25.600Z,68.12
2023-05-05T11:44:54.323Z,69.29
2023-05-05T11:47:32.625Z,67.06
2023-05-05T11:50:19.284Z,66.04
2023-05-05T11:52:48.254Z,65.43
2023-05-05T11:55:23.065Z,64.22
2023-05-05T11:57:52.656Z,64.69
2023-05-05T12:00:21.035Z,62.57
2023-05-05T12:02:57.422Z,60.50
2023-05-05T12:05:25.484Z,61.59
2023-05-05T12:07:58.600Z,59.75
2023-05-05T12:10:26.741Z,61.05
2023-05-05T12:12:56.161Z,60.52
2023-05-05T12:15:31.695Z,61.59
2023-05-05T12:18:02.070Z,61.30
2023-05-05T12:20:32.261Z,61.57
2023-05-05T12:23:04.730Z,60.69
2023-05-05T12:25:37.112Z,61.43
2023-05-05T12:28:07.704Z,60.77
2023-05-05T12:30:36.331Z,60.88
2023-05-05T12:33:05.586Z,60.86
2023-05-05T12:35:35.733Z,61.21
2023-05-05T12:38:04.036Z,60.83
2023-05-05T12:40:45.751Z,61.00
2023-05-05T12:43:29.986Z,59.74
2023-05-05T12:46:09.026Z,58.80
2023-05-05T12:48:38.968Z,59.84
2023-05-05T12:51:18.198Z,59.00
2023-05-05T12:53:46.477Z,59.43
2023-05-05T12:56:34.126Z,58.59
2023-05-05T12:59:04.233Z,57.25
2023-05-05T13:01:32.815Z,55.44
2023-05-05T13:04:08.659Z,56.21
2023-05-05T13:06:37.776Z,57.22
2023-05-05T13:09:06.689Z,55.65
2023-05-05T13:11:38.198Z,55.92
2023-05-05T13:14:08.153Z,55.69
2023-05-05T13:16:36.140Z,55.83
2023-05-05T13:19:04.007Z,56.46
2023-05-05T13:21:31.890Z,55.19
2023-05-05T13:24:18.220Z,55.69
2023-05-05T13:26:47.769Z,57.75
2023-05-05T13:29:17.462Z,57.67
2023-05-05T13:31:46.493Z,57.36
2023-05-05T13:34:14.361Z,57.89
2023-05-05T13:36:43.405Z,57.83
2023-05-05T13:39:11.310Z,57.89
2023-05-05T13:41:39.266Z,57.20
2023-05-05T13:44:07.138Z,57.47
2023-05-05T13:46:36.437Z,57.66
2023-05-05T13:49:04.323Z,56.98
2023-05-05T13:51:32.971Z,58.02
2023-05-05T13:54:00.816Z,57.09
2023-05-05T13:56:29.178Z,56.25
2023-05-05T13:58:57.278Z,57.11
2023-05-05T14:01:25.213Z,56.33
2023-05-05T14:03:56.926Z,56.90
2023-05-05T14:06:25.968Z,57.37
2023-05-05T14:08:54.632Z,57.80
2023-05-05T14:11:22.915Z,58.54
2023-05-05T14:13:52.019Z,58.19
2023-05-05T14:16:20.184Z,58.34
2023-05-05T14:18:48.200Z,57.98
2023-05-05T14:21:17.460Z,58.19
2023-05-05T14:23:45.359Z,57.68
2023-05-05T14:26:13.185Z,58.40
2023-05-05T14:28:42.235Z,58.15
2023-05-05T14:31:11.061Z,58.70
2023-05-05T14:33:38.998Z,59.46
2023-05-05T14:36:08.997Z,59.53
2023-05-05T14:38:38.258Z,60.78
2023-05-05T14:41:06.627Z,60.90
2023-05-05T14:43:34.536Z,61.21
2023-05-05T14:46:06.694Z,61.36
2023-05-05T14:48:35.286Z,61.24
2023-05-05T14:51:03.365Z,61.95
2023-05-05T14:53:31.409Z,61.60
2023-05-05T14:56:02.199Z,61.48
2023-05-05T14:58:31.260Z,61.58
2023-05-05T15:01:00.434Z,61.52
2023-05-05T15:03:28.550Z,61.82
2023-05-05T15:05:56.705Z,62.10
2023-05-05T15:08:24.749Z,61.81
2023-05-05T15:10:52.753Z,62.48
2023-05-05T15:13:21.985Z,62.12
2023-05-05T15:15:50.133Z,62.36
2023-05-05T15:18:18.394Z,62.25
2023-05-05T15:20:46.248Z,62.67
2023-05-05T15:23:14.057Z,62.85
2023-05-05T15:25:41.919Z,63.09
2023-05-05T15:28:09.865Z,63.32
2023-05-05T15:35:25.504Z,70.67
2023-05-05T15:37:54.852Z,72.77
2023-05-05T15:40:23.343Z,73.43
2023-05-05T15:42:51.456Z,75.44
2023-05-05T15:45:19.503Z,77.40
2023-05-05T15:47:47.987Z,82.81
2023-05-05T15:50:16.169Z,82.43
2023-05-05T15:52:47.149Z,84.58
2023-05-05T15:55:16.229Z,83.61
2023-05-05T15:57:44.298Z,86.15
2023-05-05T16:00:13.933Z,88.47
2023-05-05T16:02:42.113Z,90.97
2023-05-05T16:05:10.988Z,90.69
2023-05-05T16:07:39.362Z,90.00
2023-05-05T16:10:10.720Z,89.95
2023-05-05T16:12:38.707Z,91.45
2023-05-05T16:15:08.212Z,91.36
2023-05-05T16:17:36.664Z,92.09
2023-05-05T16:20:05.103Z,93.32
2023-05-05T16:22:33.145Z,91.41
2023-05-05T16:25:01.197Z,93.14
2023-05-05T16:27:30.654Z,94.13
2023-05-05T16:29:59.832Z,95.13
2023-05-05T16:32:28.916Z,94.64
2023-05-05T16:34:57.187Z,94.67
2023-05-05T16:37:25.228Z,95.61
2023-05-05T16:39:53.263Z,95.00
2023-05-05T16:42:21.413Z,95.29
2023-05-05T16:44:50.848Z,94.71
2023-05-05T16:47:19.257Z,96.06
2023-05-05T16:49:47.332Z,95.31
2023-05-05T16:52:15.457Z,92.40
2023-05-05T16:54:43.634Z,92.50
2023-05-05T16:57:11.623Z,94.88
2023-05-05T16:59:41.741Z,89.94
2023-05-05T17:02:11.177Z,92.59
2023-05-05T17:04:39.397Z,92.71
2023-05-05T17:07:07.851Z,92.55
2023-05-05T17:09:36.019Z,92.60
2023-05-05T17:12:05.040Z,91.95
2023-05-05T17:14:33.975Z,93.13
2023-05-05T17:17:02.127Z,92.27
2023-05-05T17:19:32.233Z,92.54
2023-05-05T17:22:02.499Z,92.15
2023-05-05T17:24:30.659Z,93.37
2023-05-05T17:26:59.705Z,93.62
2023-05-05T17:29:27.801Z,93.27
2023-05-05T17:31:55.888Z,91.98
2023-05-05T17:34:23.922Z,93.63
2023-05-05T17:36:53.316Z,94.57
2023-05-05T17:39:21.308Z,92.70
2023-05-05T17:41:49.406Z,95.42
2023-05-05T17:44:17.458Z,95.69
2023-05-05T17:46:45.510Z,94.67
2023-05-05T17:49:17.907Z,93.97
2023-05-05T17:51:46.079Z,94.31
2023-05-05T17:54:19.536Z,95.12
2023-05-05T17:56:47.602Z,96.33
2023-05-05T17:59:20.649Z,95.01
2023-05-05T18:01:48.831Z,96.73
2023-05-05T18:04:17.529Z,95.38
2023-05-05T18:06:45.804Z,97.43
2023-05-05T18:09:15.566Z,97.84
2023-05-05T18:11:46.152Z,98.62
2023-05-05T18:14:16.982Z,97.90
2023-05-05T18:16:49.593Z,96.46
2023-05-05T18:19:17.738Z,96.30
2023-05-05T18:21:45.752Z,96.34
2023-05-05T18:24:20.067Z,97.08
2023-05-05T18:26:51.684Z,97.11
2023-05-05T18:29:21.572Z,96.90
2023-05-05T18:31:51.982Z,97.73
2023-05-05T18:34:20.819Z,98.05
2023-05-05T18:36:49.543Z,97.89
2023-05-05T18:39:19.248Z,97.78
2023-05-05T18:41:47.337Z,98.63
2023-05-05T18:44:16.083Z,98.48
2023-05-05T18:46:44.212Z,97.92
2023-05-05T18:49:12.449Z,98.08
2023-05-05T18:51:41.510Z,96.97
2023-05-05T18:54:12.888Z,98.81
2023-05-05T18:56:42.661Z,96.97
2023-05-05T18:59:10.583Z,99.14
2023-05-05T19:01:38.662Z,99.07
2023-05-05T19:04:15.513Z,100.00
2023-05-05T19:06:53.387Z,99.06
2023-05-05T19:09:21.334Z,99.66
2023-05-05T19:11:50.987Z,97.65
2023-05-05T19:14:19.237Z,97.51
2023-05-05T19:16:47.426Z,97.91
2023-05-05T19:19:15.911Z,100.00
2023-05-05T19:21:44.378Z,100.00
2023-05-05T19:24:14.882Z,98.96
2023-05-05T19:26:47.610Z,99.28
2023-05-05T19:29:19.442Z,98.93
2023-05-05T19:31:47.490Z,100.00
2023-05-05T19:34:17.504Z,99.51
2023-05-05T19:36:47.130Z,99.81
2023-05-05T19:39:18.193Z,99.66
2023-05-05T19:41:46.223Z,98.70
2023-05-05T19:44:14.760Z,99.96
2023-05-05T19:46:46.807Z,99.95
2023-05-05T19:49:18.699Z,99.77
2023-05-05T19:51:49.734Z,99.20
2023-05-05T19:54:17.763Z,100.00
2023-05-05T19:56:46.050Z,100.00
2023-05-05T19:59:14.043Z,100.00
2023-05-05T20:01:42.129Z,100.00
2023-05-05T20:04:12.046Z,100.00
2023-05-05T20:06:40.094Z,100.00
2023-05-05T20:09:08.637Z,100.00
2023-05-05T20:11:36.952Z,99.86
2023-05-05T20:14:07.749Z,100.00
2023-05-05T20:16:36.077Z,98.03
2023-05-05T20:19:05.167Z,98.06
2023-05-05T20:21:36.971Z,97.56
2023-05-05T20:24:06.130Z,98.29
2023-05-05T20:26:35.698Z,98.59
2023-05-05T20:29:03.814Z,98.71
2023-05-05T20:31:34.889Z,99.28
2023-05-05T20:34:06.087Z,98.71
2023-05-05T20:36:35.558Z,98.71
2023-05-05T20:39:03.632Z,99.32
2023-05-05T20:41:31.747Z,98.61
2023-05-05T20:43:59.760Z,98.99
2023-05-05T20:46:31.836Z,99.07
2023-05-05T20:49:00.291Z,99.50
2023-05-05T20:51:31.530Z,98.78
2023-05-05T20:54:01.268Z,98.64
2023-05-05T20:56:29.273Z,99.27
2023-05-05T20:58:57.681Z,99.13
2023-05-05T21:01:25.827Z,100.00
2023-05-05T21:03:53.951Z,100.00
2023-05-05T21:06:22.026Z,100.00
2023-05-05T21:08:49.896Z,100.00
2023-05-05T21:11:19.366Z,100.00
2023-05-05T21:13:47.234Z,100.00
2023-05-05T21:16:15.457Z,100.00
2023-05-05T21:18:46.715Z,100.00
2023-05-05T21:21:14.820Z,100.00
2023-05-05T21:23:42.740Z,100.00
2023-05-05T21:26:10.990Z,100.00
2023-05-05T21:28:41.449Z,100.00
2023-05-05T21:33:40.351Z,100.00
2023-05-05T21:36:08.595Z,100.00
2023-05-05T21:38:36.722Z,100.00
2023-05-05T21:41:04.768Z,100.00
2023-05-05T21:43:32.868Z,100.00
2023-05-05T21:46:03.106Z,100.00
2023-05-05T21:48:31.869Z,100.00
2023-05-05T21:50:59.887Z,100.00
2023-05-05T21:53:28.408Z,100.00
2023-05-05T21:55:57.084Z,100.00
2023-05-05T21:58:25.614Z,100.00
2023-05-05T22:00:53.750Z,100.00
2023-05-05T22:03:23.429Z,99.83
2023-05-05T22:05:51.927Z,100.00
2023-05-05T22:08:21.851Z,100.00
2023-05-05T22:10:49.985Z,100.00
2023-05-05T22:13:18.267Z,100.00
2023-05-05T22:15:47.450Z,100.00
2023-05-05T22:18:15.951Z,100.00
2023-05-05T22:20:46.847Z,100.00
2023-05-05T22:23:16.157Z,100.00
2023-05-05T22:25:44.734Z,100.00
2023-05-05T22:28:21.412Z,100.00
2023-05-05T22:30:49.429Z,99.69
2023-05-05T22:33:17.906Z,97.76
2023-05-05T22:35:47.373Z,97.23
2023-05-05T22:38:15.471Z,96.50
2023-05-05T22:40:43.594Z,96.60
2023-05-05T22:43:11.865Z,95.96
2023-05-05T22:45:40.086Z,96.57
2023-05-05T22:48:08.237Z,95.25
2023-05-05T22:50:36.722Z,95.97
2023-05-05T22:53:07.491Z,95.76
2023-05-05T22:55:35.564Z,95.71
2023-05-05T22:58:03.640Z,96.49
2023-05-05T23:00:31.880Z,95.11
2023-05-05T23:02:59.921Z,95.84
2023-05-05T23:05:28.138Z,96.52
2023-05-05T23:07:56.100Z,96.00
2023-05-05T23:10:25.548Z,95.65
2023-05-05T23:12:53.576Z,96.01
2023-05-05T23:15:22.819Z,97.52
2023-05-05T23:17:50.849Z,96.63
2023-05-05T23:20:18.933Z,96.60
2023-05-05T23:22:47.053Z,97.05
2023-05-05T23:25:14.994Z,95.17
2023-05-05T23:27:44.379Z,95.82
2023-05-05T23:30:13.637Z,96.31
2023-05-05T23:32:42.740Z,96.64
2023-05-05T23:35:11.264Z,96.14
2023-05-05T23:37:39.419Z,95.63
2023-05-05T23:40:09.183Z,96.58
2023-05-05T23:42:37.189Z,97.35
2023-05-05T23:45:07.908Z,96.83
2023-05-05T23:47:36.157Z,96.92
2023-05-05T23:50:04.831Z,96.19
2023-05-05T23:52:32.761Z,96.86
2023-05-05T23:55:00.737Z,96.36
2023-05-05T23:57:28.704Z,96.54
2023-05-05T23:59:56.794Z,96.86
